sensor_id;sensor_type;location;lat;lon;timestamp;temperature;humidity
43338;DHT22;28933;52.492;13.434;2023-04-15T00:01:18;10.30;99.90
43338;DHT22;28933;52.492;13.434;2023-04-15T00:03:44;10.30;99.90
43338;DHT22;28933;52.492;13.434;2023-04-15T00:06:10;10.40;99.90
43338;DHT22;28933;52.492;13.434;2023-04-15T00:08:36;10.30;99.90
43338;DHT22;28933;52.492;13.434;2023-04-15T00:11:02;10.40;99.90
43338;DHT22;28933;52.492;13.434;2023-04-15T00:13:30;10.40;99.90
43338;DHT22;28933;52.492;13.434;2023-04-15T00:15:57;10.40;99.90
43338;DHT22;28933;52.492;13.434;2023-04-15T00:18:23;10.40;99.90
43338;DHT22;28933;52.492;13.434;2023-04-15T00:20:49;10.40;99.90
43338;DHT22;28933;52.492;13.434;2023-04-15T00:23:14;10.40;99.90
43338;DHT22;28933;52.492;13.434;2023-04-15T00:25:40;10.40;99.90
43338;DHT22;28933;52.492;13.434;2023-04-15T00:28:06;10.30;99.90
43338;DHT22;28933;52.492;13.434;2023-04-15T00:30:32;10.30;99.90
43338;DHT22;28933;52.492;13.434;2023-04-15T00:32:59;10.30;99.90
43338;DHT22;28933;52.492;13.434;2023-04-15T00:35:26;10.30;99.90
43338;DHT22;28933;52.492;13.434;2023-04-15T00:37:52;10.30;99.90
43338;DHT22;28933;52.492;13.434;2023-04-15T00:40:18;10.30;99.90
43338;DHT22;28933;52.492;13.434;2023-04-15T00:42:45;10.30;99.90
43338;DHT22;28933;52.492;13.434;2023-04-15T00:45:11;10.20;99.90
43338;DHT22;28933;52.492;13.434;2023-04-15T00:47:40;10.20;99.90
43338;DHT22;28933;52.492;13.434;2023-04-15T00:50:06;10.20;99.90
43338;DHT22;28933;52.492;13.434;2023-04-15T00:52:32;10.20;99.90
43338;DHT22;28933;52.492;13.434;2023-04-15T00:54:59;10.20;99.90
43338;DHT22;28933;52.492;13.434;2023-04-15T00:57:25;10.30;99.90
43338;DHT22;28933;52.492;13.434;2023-04-15T00:59:54;10.20;99.90
43338;DHT22;28933;52.492;13.434;2023-04-15T01:02:21;10.20;99.90
43338;DHT22;28933;52.492;13.434;2023-04-15T01:04:46;10.30;99.90
43338;DHT22;28933;52.492;13.434;2023-04-15T01:07:13;10.20;99.90
43338;DHT22;28933;52.492;13.434;2023-04-15T01:09:39;10.20;99.90
43338;DHT22;28933;52.492;13.434;2023-04-15T01:12:06;10.20;99.90
43338;DHT22;28933;52.492;13.434;2023-04-15T01:14:34;10.20;99.90
43338;DHT22;28933;52.492;13.434;2023-04-15T01:17:00;10.20;99.90
43338;DHT22;28933;52.492;13.434;2023-04-15T01:19:27;10.30;99.90
43338;DHT22;28933;52.492;13.434;2023-04-15T01:21:53;10.20;99.90
43338;DHT22;28933;52.492;13.434;2023-04-15T01:24:19;10.20;99.90
43338;DHT22;28933;52.492;13.434;2023-04-15T01:26:45;10.30;99.90
43338;DHT22;28933;52.492;13.434;2023-04-15T01:29:11;10.20;99.90
43338;DHT22;28933;52.492;13.434;2023-04-15T01:31:37;10.20;99.90
43338;DHT22;28933;52.492;13.434;2023-04-15T01:34:03;10.20;99.90
43338;DHT22;28933;52.492;13.434;2023-04-15T01:36:29;10.20;99.90
43338;DHT22;28933;52.492;13.434;2023-04-15T01:38:55;10.20;99.90
43338;DHT22;28933;52.492;13.434;2023-04-15T01:41:25;10.30;99.90
43338;DHT22;28933;52.492;13.434;2023-04-15T01:43:51;10.20;99.90
43338;DHT22;28933;52.492;13.434;2023-04-15T01:46:17;10.20;99.90
43338;DHT22;28933;52.492;13.434;2023-04-15T01:48:42;10.20;99.90
43338;DHT22;28933;52.492;13.434;2023-04-15T01:51:08;10.20;99.90
43338;DHT22;28933;52.492;13.434;2023-04-15T01:53:33;10.20;99.90
43338;DHT22;28933;52.492;13.434;2023-04-15T01:55:59;10.20;99.90
43338;DHT22;28933;52.492;13.434;2023-04-15T01:58:25;10.20;99.90
43338;DHT22;28933;52.492;13.434;2023-04-15T02:00:51;10.20;99.90
43338;DHT22;28933;52.492;13.434;2023-04-15T02:03:17;10.20;99.90
43338;DHT22;28933;52.492;13.434;2023-04-15T02:05:42;10.20;99.90
43338;DHT22;28933;52.492;13.434;2023-04-15T02:08:08;10.20;99.90
43338;DHT22;28933;52.492;13.434;2023-04-15T02:10:34;10.20;99.90
43338;DHT22;28933;52.492;13.434;2023-04-15T02:13:00;10.20;99.90
43338;DHT22;28933;52.492;13.434;2023-04-15T02:15:26;10.20;99.90
43338;DHT22;28933;52.492;13.434;2023-04-15T02:17:51;10.20;99.90
43338;DHT22;28933;52.492;13.434;2023-04-15T02:20:20;10.20;99.90
43338;DHT22;28933;52.492;13.434;2023-04-15T02:22:46;10.20;99.90
43338;DHT22;28933;52.492;13.434;2023-04-15T02:25:13;10.20;99.90
43338;DHT22;28933;52.492;13.434;2023-04-15T02:27:39;10.20;99.90
43338;DHT22;28933;52.492;13.434;2023-04-15T02:30:05;10.20;99.90
43338;DHT22;28933;52.492;13.434;2023-04-15T02:32:32;10.10;99.90
43338;DHT22;28933;52.492;13.434;2023-04-15T02:35:04;10.20;99.90
43338;DHT22;28933;52.492;13.434;2023-04-15T02:37:31;10.20;99.90
43338;DHT22;28933;52.492;13.434;2023-04-15T02:40:00;10.10;99.90
43338;DHT22;28933;52.492;13.434;2023-04-15T02:42:26;10.10;99.90
43338;DHT22;28933;52.492;13.434;2023-04-15T02:44:53;10.20;99.90
43338;DHT22;28933;52.492;13.434;2023-04-15T02:47:19;10.10;99.90
43338;DHT22;28933;52.492;13.434;2023-04-15T02:49:45;10.10;99.90
43338;DHT22;28933;52.492;13.434;2023-04-15T02:52:11;10.20;99.90
43338;DHT22;28933;52.492;13.434;2023-04-15T02:54:36;10.20;99.90
43338;DHT22;28933;52.492;13.434;2023-04-15T02:57:02;10.20;99.90
43338;DHT22;28933;52.492;13.434;2023-04-15T02:59:31;10.20;99.90
43338;DHT22;28933;52.492;13.434;2023-04-15T03:01:56;10.20;99.90
43338;DHT22;28933;52.492;13.434;2023-04-15T03:04:25;10.20;99.90
43338;DHT22;28933;52.492;13.434;2023-04-15T03:06:51;10.20;99.90
43338;DHT22;28933;52.492;13.434;2023-04-15T03:09:16;10.30;99.90
43338;DHT22;28933;52.492;13.434;2023-04-15T03:11:42;10.20;99.90
43338;DHT22;28933;52.492;13.434;2023-04-15T03:14:08;10.30;99.90
43338;DHT22;28933;52.492;13.434;2023-04-15T03:16:33;10.30;99.90
43338;DHT22;28933;52.492;13.434;2023-04-15T03:18:59;10.30;99.90
43338;DHT22;28933;52.492;13.434;2023-04-15T03:21:25;10.30;99.90
43338;DHT22;28933;52.492;13.434;2023-04-15T03:23:51;10.30;99.90
43338;DHT22;28933;52.492;13.434;2023-04-15T03:26:29;10.30;99.90
43338;DHT22;28933;52.492;13.434;2023-04-15T03:28:56;10.30;99.90
43338;DHT22;28933;52.492;13.434;2023-04-15T03:31:22;10.30;99.90
43338;DHT22;28933;52.492;13.434;2023-04-15T03:33:48;10.30;99.90
43338;DHT22;28933;52.492;13.434;2023-04-15T03:36:14;10.30;99.90
43338;DHT22;28933;52.492;13.434;2023-04-15T03:38:40;10.40;99.90
43338;DHT22;28933;52.492;13.434;2023-04-15T03:41:06;10.40;99.90
43338;DHT22;28933;52.492;13.434;2023-04-15T03:43:32;10.40;99.90
43338;DHT22;28933;52.492;13.434;2023-04-15T03:45:57;10.40;99.90
43338;DHT22;28933;52.492;13.434;2023-04-15T03:48:23;10.40;99.90
43338;DHT22;28933;52.492;13.434;2023-04-15T03:50:49;10.50;99.90
43338;DHT22;28933;52.492;13.434;2023-04-15T03:53:15;10.40;99.90
43338;DHT22;28933;52.492;13.434;2023-04-15T03:55:40;10.50;99.90
43338;DHT22;28933;52.492;13.434;2023-04-15T03:58:06;10.50;99.90
43338;DHT22;28933;52.492;13.434;2023-04-15T04:00:32;10.50;99.90
43338;DHT22;28933;52.492;13.434;2023-04-15T04:02:57;10.60;99.90
43338;DHT22;28933;52.492;13.434;2023-04-15T04:05:23;10.60;99.90
43338;DHT22;28933;52.492;13.434;2023-04-15T04:07:49;10.50;99.90
43338;DHT22;28933;52.492;13.434;2023-04-15T04:10:15;10.50;99.90
43338;DHT22;28933;52.492;13.434;2023-04-15T04:12:40;10.50;99.90
43338;DHT22;28933;52.492;13.434;2023-04-15T04:15:06;10.50;99.90
43338;DHT22;28933;52.492;13.434;2023-04-15T04:17:32;10.60;99.90
43338;DHT22;28933;52.492;13.434;2023-04-15T04:19:58;10.60;99.90
43338;DHT22;28933;52.492;13.434;2023-04-15T04:22:24;10.60;99.90
43338;DHT22;28933;52.492;13.434;2023-04-15T04:24:49;10.60;99.90
43338;DHT22;28933;52.492;13.434;2023-04-15T04:27:15;10.60;99.90
43338;DHT22;28933;52.492;13.434;2023-04-15T04:29:42;10.70;99.90
43338;DHT22;28933;52.492;13.434;2023-04-15T04:32:07;10.70;99.90
43338;DHT22;28933;52.492;13.434;2023-04-15T04:34:33;10.70;99.90
43338;DHT22;28933;52.492;13.434;2023-04-15T04:36:59;10.70;99.90
43338;DHT22;28933;52.492;13.434;2023-04-15T04:39:25;10.70;99.90
43338;DHT22;28933;52.492;13.434;2023-04-15T04:41:50;10.70;99.90
43338;DHT22;28933;52.492;13.434;2023-04-15T04:44:19;10.80;99.90
43338;DHT22;28933;52.492;13.434;2023-04-15T04:46:44;10.80;99.90
43338;DHT22;28933;52.492;13.434;2023-04-15T04:49:10;10.80;99.90
43338;DHT22;28933;52.492;13.434;2023-04-15T04:51:35;10.80;99.90
43338;DHT22;28933;52.492;13.434;2023-04-15T04:54:01;10.80;99.90
43338;DHT22;28933;52.492;13.434;2023-04-15T04:56:28;10.90;99.90
43338;DHT22;28933;52.492;13.434;2023-04-15T04:58:54;10.80;99.90
43338;DHT22;28933;52.492;13.434;2023-04-15T05:01:19;10.90;99.90
43338;DHT22;28933;52.492;13.434;2023-04-15T05:03:45;10.80;99.90
43338;DHT22;28933;52.492;13.434;2023-04-15T05:06:11;10.80;99.90
43338;DHT22;28933;52.492;13.434;2023-04-15T05:08:37;10.90;99.90
43338;DHT22;28933;52.492;13.434;2023-04-15T05:11:03;10.90;99.90
43338;DHT22;28933;52.492;13.434;2023-04-15T05:13:28;10.90;99.90
43338;DHT22;28933;52.492;13.434;2023-04-15T05:15:55;10.90;99.90
43338;DHT22;28933;52.492;13.434;2023-04-15T05:18:21;10.90;99.90
43338;DHT22;28933;52.492;13.434;2023-04-15T05:20:46;10.90;99.90
43338;DHT22;28933;52.492;13.434;2023-04-15T05:23:14;10.90;99.90
43338;DHT22;28933;52.492;13.434;2023-04-15T05:25:40;10.90;99.90
43338;DHT22;28933;52.492;13.434;2023-04-15T05:28:05;10.90;99.90
43338;DHT22;28933;52.492;13.434;2023-04-15T05:30:31;10.90;99.90
43338;DHT22;28933;52.492;13.434;2023-04-15T05:32:56;11.00;99.90
43338;DHT22;28933;52.492;13.434;2023-04-15T05:35:22;10.90;99.90
43338;DHT22;28933;52.492;13.434;2023-04-15T05:37:48;11.00;99.90
43338;DHT22;28933;52.492;13.434;2023-04-15T05:40:13;11.00;99.90
43338;DHT22;28933;52.492;13.434;2023-04-15T05:42:39;11.00;99.90
43338;DHT22;28933;52.492;13.434;2023-04-15T05:45:06;11.00;99.90
43338;DHT22;28933;52.492;13.434;2023-04-15T05:47:35;11.00;99.90
43338;DHT22;28933;52.492;13.434;2023-04-15T05:50:02;11.00;99.90
43338;DHT22;28933;52.492;13.434;2023-04-15T05:52:28;11.10;99.90
43338;DHT22;28933;52.492;13.434;2023-04-15T05:54:54;11.10;99.90
43338;DHT22;28933;52.492;13.434;2023-04-15T05:57:20;11.10;99.90
43338;DHT22;28933;52.492;13.434;2023-04-15T05:59:45;11.20;99.90
43338;DHT22;28933;52.492;13.434;2023-04-15T06:02:11;11.10;99.90
43338;DHT22;28933;52.492;13.434;2023-04-15T06:04:38;11.20;99.90
43338;DHT22;28933;52.492;13.434;2023-04-15T06:07:04;11.20;99.90
43338;DHT22;28933;52.492;13.434;2023-04-15T06:09:29;11.20;99.90
43338;DHT22;28933;52.492;13.434;2023-04-15T06:11:55;11.20;99.90
43338;DHT22;28933;52.492;13.434;2023-04-15T06:14:22;11.20;99.90
43338;DHT22;28933;52.492;13.434;2023-04-15T06:16:47;11.20;99.90
43338;DHT22;28933;52.492;13.434;2023-04-15T06:19:13;11.20;99.90
43338;DHT22;28933;52.492;13.434;2023-04-15T06:21:39;11.30;99.90
43338;DHT22;28933;52.492;13.434;2023-04-15T06:24:05;11.30;99.90
43338;DHT22;28933;52.492;13.434;2023-04-15T06:26:30;11.30;99.90
43338;DHT22;28933;52.492;13.434;2023-04-15T06:28:56;11.30;99.90
43338;DHT22;28933;52.492;13.434;2023-04-15T06:31:22;11.30;99.90
43338;DHT22;28933;52.492;13.434;2023-04-15T06:33:47;11.30;99.90
43338;DHT22;28933;52.492;13.434;2023-04-15T06:36:13;11.40;99.90
43338;DHT22;28933;52.492;13.434;2023-04-15T06:38:39;11.40;99.90
43338;DHT22;28933;52.492;13.434;2023-04-15T06:41:05;11.50;99.90
43338;DHT22;28933;52.492;13.434;2023-04-15T06:43:31;11.50;99.90
43338;DHT22;28933;52.492;13.434;2023-04-15T06:45:56;11.60;99.90
43338;DHT22;28933;52.492;13.434;2023-04-15T06:48:22;11.60;99.90
43338;DHT22;28933;52.492;13.434;2023-04-15T06:50:48;11.70;99.90
43338;DHT22;28933;52.492;13.434;2023-04-15T06:53:14;11.70;99.90
43338;DHT22;28933;52.492;13.434;2023-04-15T06:55:40;11.70;99.90
43338;DHT22;28933;52.492;13.434;2023-04-15T06:58:06;11.70;99.90
43338;DHT22;28933;52.492;13.434;2023-04-15T07:00:32;11.70;99.90
43338;DHT22;28933;52.492;13.434;2023-04-15T07:02:58;11.80;99.90
43338;DHT22;28933;52.492;13.434;2023-04-15T07:05:28;11.90;99.90
43338;DHT22;28933;52.492;13.434;2023-04-15T07:07:54;12.00;99.90
43338;DHT22;28933;52.492;13.434;2023-04-15T07:10:20;12.00;99.90
43338;DHT22;28933;52.492;13.434;2023-04-15T07:12:47;12.00;99.90
43338;DHT22;28933;52.492;13.434;2023-04-15T07:15:13;12.10;99.90
43338;DHT22;28933;52.492;13.434;2023-04-15T07:17:40;12.10;99.90
43338;DHT22;28933;52.492;13.434;2023-04-15T07:20:07;12.10;99.90
43338;DHT22;28933;52.492;13.434;2023-04-15T07:22:33;12.10;99.90
43338;DHT22;28933;52.492;13.434;2023-04-15T07:24:59;12.10;99.90
43338;DHT22;28933;52.492;13.434;2023-04-15T07:27:25;12.10;99.90
43338;DHT22;28933;52.492;13.434;2023-04-15T07:29:51;12.10;99.90
43338;DHT22;28933;52.492;13.434;2023-04-15T07:32:17;12.10;99.90
43338;DHT22;28933;52.492;13.434;2023-04-15T07:34:43;12.10;99.90
43338;DHT22;28933;52.492;13.434;2023-04-15T07:37:09;12.10;99.90
43338;DHT22;28933;52.492;13.434;2023-04-15T07:39:35;12.00;99.90
43338;DHT22;28933;52.492;13.434;2023-04-15T07:42:01;12.00;99.90
43338;DHT22;28933;52.492;13.434;2023-04-15T07:44:28;12.00;99.90
43338;DHT22;28933;52.492;13.434;2023-04-15T07:46:54;12.00;99.90
43338;DHT22;28933;52.492;13.434;2023-04-15T07:49:19;11.90;99.90
43338;DHT22;28933;52.492;13.434;2023-04-15T07:51:46;11.90;99.90
43338;DHT22;28933;52.492;13.434;2023-04-15T07:54:11;11.90;99.90
43338;DHT22;28933;52.492;13.434;2023-04-15T07:56:37;11.90;99.90
43338;DHT22;28933;52.492;13.434;2023-04-15T07:59:03;11.80;99.90
43338;DHT22;28933;52.492;13.434;2023-04-15T08:01:30;11.80;99.90
43338;DHT22;28933;52.492;13.434;2023-04-15T08:04:00;11.80;99.90
43338;DHT22;28933;52.492;13.434;2023-04-15T08:06:25;11.80;99.90
43338;DHT22;28933;52.492;13.434;2023-04-15T08:08:52;11.80;99.90
43338;DHT22;28933;52.492;13.434;2023-04-15T08:11:19;11.80;99.90
43338;DHT22;28933;52.492;13.434;2023-04-15T08:13:45;11.80;99.90
43338;DHT22;28933;52.492;13.434;2023-04-15T08:16:22;11.80;99.90
43338;DHT22;28933;52.492;13.434;2023-04-15T08:18:50;11.80;99.90
43338;DHT22;28933;52.492;13.434;2023-04-15T08:21:16;11.80;99.90
43338;DHT22;28933;52.492;13.434;2023-04-15T08:23:44;11.80;99.90
43338;DHT22;28933;52.492;13.434;2023-04-15T08:26:10;11.80;99.90
43338;DHT22;28933;52.492;13.434;2023-04-15T08:28:38;11.80;99.90
43338;DHT22;28933;52.492;13.434;2023-04-15T08:31:04;11.80;99.90
43338;DHT22;28933;52.492;13.434;2023-04-15T08:33:30;11.70;99.90
43338;DHT22;28933;52.492;13.434;2023-04-15T08:35:55;11.60;99.90
43338;DHT22;28933;52.492;13.434;2023-04-15T08:38:22;11.60;99.90
43338;DHT22;28933;52.492;13.434;2023-04-15T08:40:48;11.60;99.90
43338;DHT22;28933;52.492;13.434;2023-04-15T08:43:25;11.60;99.90
43338;DHT22;28933;52.492;13.434;2023-04-15T08:45:53;11.60;99.90
43338;DHT22;28933;52.492;13.434;2023-04-15T08:48:20;11.50;99.90
43338;DHT22;28933;52.492;13.434;2023-04-15T08:50:48;11.50;99.90
43338;DHT22;28933;52.492;13.434;2023-04-15T08:53:15;11.50;99.90
43338;DHT22;28933;52.492;13.434;2023-04-15T08:55:45;11.50;99.90
43338;DHT22;28933;52.492;13.434;2023-04-15T08:58:12;11.50;99.90
43338;DHT22;28933;52.492;13.434;2023-04-15T09:00:41;11.50;99.90
43338;DHT22;28933;52.492;13.434;2023-04-15T09:03:08;11.50;99.90
43338;DHT22;28933;52.492;13.434;2023-04-15T09:05:35;11.60;99.90
43338;DHT22;28933;52.492;13.434;2023-04-15T09:08:02;11.60;99.90
43338;DHT22;28933;52.492;13.434;2023-04-15T09:10:28;11.70;99.90
43338;DHT22;28933;52.492;13.434;2023-04-15T09:12:54;11.70;99.90
43338;DHT22;28933;52.492;13.434;2023-04-15T09:15:20;11.70;99.90
43338;DHT22;28933;52.492;13.434;2023-04-15T09:17:47;11.70;99.90
43338;DHT22;28933;52.492;13.434;2023-04-15T09:20:14;11.70;99.90
43338;DHT22;28933;52.492;13.434;2023-04-15T09:22:41;11.70;99.90
43338;DHT22;28933;52.492;13.434;2023-04-15T09:25:25;11.80;99.90
43338;DHT22;28933;52.492;13.434;2023-04-15T09:27:59;11.70;99.90
43338;DHT22;28933;52.492;13.434;2023-04-15T09:30:27;11.70;99.90
43338;DHT22;28933;52.492;13.434;2023-04-15T09:32:55;11.80;99.90
43338;DHT22;28933;52.492;13.434;2023-04-15T09:35:22;11.70;99.90
43338;DHT22;28933;52.492;13.434;2023-04-15T09:37:49;11.70;99.90
43338;DHT22;28933;52.492;13.434;2023-04-15T09:42:58;11.70;99.90
43338;DHT22;28933;52.492;13.434;2023-04-15T09:45:24;11.80;99.90
43338;DHT22;28933;52.492;13.434;2023-04-15T09:47:50;11.80;99.90
43338;DHT22;28933;52.492;13.434;2023-04-15T09:50:16;11.80;99.90
43338;DHT22;28933;52.492;13.434;2023-04-15T09:52:42;11.90;99.90
43338;DHT22;28933;52.492;13.434;2023-04-15T09:55:09;11.90;99.90
43338;DHT22;28933;52.492;13.434;2023-04-15T09:57:36;11.90;99.90
43338;DHT22;28933;52.492;13.434;2023-04-15T10:00:06;11.90;99.90
43338;DHT22;28933;52.492;13.434;2023-04-15T10:02:33;11.90;99.90
43338;DHT22;28933;52.492;13.434;2023-04-15T10:05:00;11.90;99.90
43338;DHT22;28933;52.492;13.434;2023-04-15T10:07:27;11.90;99.90
43338;DHT22;28933;52.492;13.434;2023-04-15T10:09:52;11.90;99.90
43338;DHT22;28933;52.492;13.434;2023-04-15T10:12:19;11.90;99.90
43338;DHT22;28933;52.492;13.434;2023-04-15T10:14:55;12.00;99.90
43338;DHT22;28933;52.492;13.434;2023-04-15T10:17:21;12.00;99.90
43338;DHT22;28933;52.492;13.434;2023-04-15T10:19:48;12.00;99.90
43338;DHT22;28933;52.492;13.434;2023-04-15T10:22:16;11.90;99.90
43338;DHT22;28933;52.492;13.434;2023-04-15T10:24:43;12.00;99.90
43338;DHT22;28933;52.492;13.434;2023-04-15T10:27:10;11.90;99.90
43338;DHT22;28933;52.492;13.434;2023-04-15T10:29:36;11.90;99.90
43338;DHT22;28933;52.492;13.434;2023-04-15T10:32:02;11.90;99.90
43338;DHT22;28933;52.492;13.434;2023-04-15T10:34:29;12.00;99.90
43338;DHT22;28933;52.492;13.434;2023-04-15T10:36:57;12.00;99.90
43338;DHT22;28933;52.492;13.434;2023-04-15T10:39:39;11.90;99.90
43338;DHT22;28933;52.492;13.434;2023-04-15T10:44:40;11.90;99.90
43338;DHT22;28933;52.492;13.434;2023-04-15T10:47:24;11.80;99.90
43338;DHT22;28933;52.492;13.434;2023-04-15T10:49:56;11.90;99.90
43338;DHT22;28933;52.492;13.434;2023-04-15T10:52:24;11.90;99.90
43338;DHT22;28933;52.492;13.434;2023-04-15T10:55:13;11.80;99.90
43338;DHT22;28933;52.492;13.434;2023-04-15T10:57:41;11.80;99.90
43338;DHT22;28933;52.492;13.434;2023-04-15T11:05:10;11.70;99.90
43338;DHT22;28933;52.492;13.434;2023-04-15T11:07:50;11.80;99.90
43338;DHT22;28933;52.492;13.434;2023-04-15T11:12:43;11.70;99.90
43338;DHT22;28933;52.492;13.434;2023-04-15T11:15:33;11.80;99.90
43338;DHT22;28933;52.492;13.434;2023-04-15T11:20:39;11.80;99.90
43338;DHT22;28933;52.492;13.434;2023-04-15T11:23:08;11.80;99.90
43338;DHT22;28933;52.492;13.434;2023-04-15T11:25:35;11.80;99.90
43338;DHT22;28933;52.492;13.434;2023-04-15T11:28:03;11.80;99.90
43338;DHT22;28933;52.492;13.434;2023-04-15T11:30:33;11.80;99.90
43338;DHT22;28933;52.492;13.434;2023-04-15T11:33:00;11.90;99.90
43338;DHT22;28933;52.492;13.434;2023-04-15T11:35:27;11.90;99.90
43338;DHT22;28933;52.492;13.434;2023-04-15T11:37:53;12.00;99.90
43338;DHT22;28933;52.492;13.434;2023-04-15T11:40:24;12.00;99.90
43338;DHT22;28933;52.492;13.434;2023-04-15T11:43:11;12.00;99.90
43338;DHT22;28933;52.492;13.434;2023-04-15T11:48:16;12.00;99.90
43338;DHT22;28933;52.492;13.434;2023-04-15T11:50:45;12.00;99.90
43338;DHT22;28933;52.492;13.434;2023-04-15T11:53:12;12.00;99.90
43338;DHT22;28933;52.492;13.434;2023-04-15T11:55:47;12.10;99.90
43338;DHT22;28933;52.492;13.434;2023-04-15T11:58:22;12.10;99.90
43338;DHT22;28933;52.492;13.434;2023-04-15T12:01:06;12.00;99.90
43338;DHT22;28933;52.492;13.434;2023-04-15T12:03:45;12.10;99.90
43338;DHT22;28933;52.492;13.434;2023-04-15T12:06:19;12.10;99.90
43338;DHT22;28933;52.492;13.434;2023-04-15T12:08:51;12.10;99.90
43338;DHT22;28933;52.492;13.434;2023-04-15T12:11:30;12.10;99.90
43338;DHT22;28933;52.492;13.434;2023-04-15T12:14:03;12.00;99.90
43338;DHT22;28933;52.492;13.434;2023-04-15T12:16:29;12.10;99.90
43338;DHT22;28933;52.492;13.434;2023-04-15T12:18:59;12.10;99.90
43338;DHT22;28933;52.492;13.434;2023-04-15T12:21:27;12.20;99.90
43338;DHT22;28933;52.492;13.434;2023-04-15T12:24:02;12.10;99.90
43338;DHT22;28933;52.492;13.434;2023-04-15T12:26:29;12.10;99.90
43338;DHT22;28933;52.492;13.434;2023-04-15T12:29:03;12.10;99.90
43338;DHT22;28933;52.492;13.434;2023-04-15T12:31:29;12.20;99.90
43338;DHT22;28933;52.492;13.434;2023-04-15T12:33:58;12.20;99.90
43338;DHT22;28933;52.492;13.434;2023-04-15T12:36:25;12.30;99.90
43338;DHT22;28933;52.492;13.434;2023-04-15T12:38:51;12.40;99.90
43338;DHT22;28933;52.492;13.434;2023-04-15T12:41:17;12.40;99.90
43338;DHT22;28933;52.492;13.434;2023-04-15T12:43:46;12.40;99.90
43338;DHT22;28933;52.492;13.434;2023-04-15T12:46:12;12.40;99.90
43338;DHT22;28933;52.492;13.434;2023-04-15T12:48:39;12.40;99.90
43338;DHT22;28933;52.492;13.434;2023-04-15T12:51:04;12.40;99.90
43338;DHT22;28933;52.492;13.434;2023-04-15T12:53:30;12.40;99.90
43338;DHT22;28933;52.492;13.434;2023-04-15T12:55:56;12.40;99.90
43338;DHT22;28933;52.492;13.434;2023-04-15T12:58:22;12.40;99.90
43338;DHT22;28933;52.492;13.434;2023-04-15T13:00:48;12.40;99.90
43338;DHT22;28933;52.492;13.434;2023-04-15T13:03:14;12.50;99.90
43338;DHT22;28933;52.492;13.434;2023-04-15T13:05:40;12.50;99.90
43338;DHT22;28933;52.492;13.434;2023-04-15T13:08:06;12.50;99.90
43338;DHT22;28933;52.492;13.434;2023-04-15T13:10:34;12.50;99.90
43338;DHT22;28933;52.492;13.434;2023-04-15T13:13:01;12.50;99.90
43338;DHT22;28933;52.492;13.434;2023-04-15T13:15:28;12.50;99.90
43338;DHT22;28933;52.492;13.434;2023-04-15T13:17:54;12.50;99.90
43338;DHT22;28933;52.492;13.434;2023-04-15T13:20:19;12.60;99.90
43338;DHT22;28933;52.492;13.434;2023-04-15T13:22:45;12.50;99.90
43338;DHT22;28933;52.492;13.434;2023-04-15T13:25:11;12.60;99.90
43338;DHT22;28933;52.492;13.434;2023-04-15T13:27:37;12.60;99.90
43338;DHT22;28933;52.492;13.434;2023-04-15T13:30:03;12.50;99.90
43338;DHT22;28933;52.492;13.434;2023-04-15T13:32:30;12.60;99.90
43338;DHT22;28933;52.492;13.434;2023-04-15T13:34:55;12.60;99.90
43338;DHT22;28933;52.492;13.434;2023-04-15T13:37:25;12.60;99.90
43338;DHT22;28933;52.492;13.434;2023-04-15T13:39:52;12.70;99.90
43338;DHT22;28933;52.492;13.434;2023-04-15T13:42:18;12.70;99.90
43338;DHT22;28933;52.492;13.434;2023-04-15T13:44:44;12.70;99.90
43338;DHT22;28933;52.492;13.434;2023-04-15T13:47:10;12.70;99.90
43338;DHT22;28933;52.492;13.434;2023-04-15T13:49:35;12.70;99.90
43338;DHT22;28933;52.492;13.434;2023-04-15T13:52:01;12.80;99.90
43338;DHT22;28933;52.492;13.434;2023-04-15T13:54:27;12.80;99.90
43338;DHT22;28933;52.492;13.434;2023-04-15T13:56:53;12.80;99.90
43338;DHT22;28933;52.492;13.434;2023-04-15T13:59:20;12.80;99.90
43338;DHT22;28933;52.492;13.434;2023-04-15T14:01:46;12.80;99.90
43338;DHT22;28933;52.492;13.434;2023-04-15T14:04:12;12.70;99.90
43338;DHT22;28933;52.492;13.434;2023-04-15T14:06:38;12.70;99.90
43338;DHT22;28933;52.492;13.434;2023-04-15T14:09:04;12.70;99.90
43338;DHT22;28933;52.492;13.434;2023-04-15T14:11:29;12.70;99.90
43338;DHT22;28933;52.492;13.434;2023-04-15T14:13:55;12.60;99.90
43338;DHT22;28933;52.492;13.434;2023-04-15T14:16:20;12.60;99.90
43338;DHT22;28933;52.492;13.434;2023-04-15T14:18:46;12.60;99.90
43338;DHT22;28933;52.492;13.434;2023-04-15T14:21:12;12.60;99.90
43338;DHT22;28933;52.492;13.434;2023-04-15T14:23:37;12.60;99.90
43338;DHT22;28933;52.492;13.434;2023-04-15T14:26:03;12.60;99.90
43338;DHT22;28933;52.492;13.434;2023-04-15T14:28:29;12.50;99.90
43338;DHT22;28933;52.492;13.434;2023-04-15T14:30:55;12.50;99.90
43338;DHT22;28933;52.492;13.434;2023-04-15T14:33:20;12.40;99.90
43338;DHT22;28933;52.492;13.434;2023-04-15T14:35:46;12.40;99.90
43338;DHT22;28933;52.492;13.434;2023-04-15T14:38:12;12.40;99.90
43338;DHT22;28933;52.492;13.434;2023-04-15T14:40:39;12.50;99.90
43338;DHT22;28933;52.492;13.434;2023-04-15T14:43:05;12.50;99.90
43338;DHT22;28933;52.492;13.434;2023-04-15T14:45:31;12.50;99.90
43338;DHT22;28933;52.492;13.434;2023-04-15T14:47:57;12.50;99.90
43338;DHT22;28933;52.492;13.434;2023-04-15T14:50:23;12.50;99.90
43338;DHT22;28933;52.492;13.434;2023-04-15T14:52:48;12.50;99.90
43338;DHT22;28933;52.492;13.434;2023-04-15T14:55:14;12.50;99.90
43338;DHT22;28933;52.492;13.434;2023-04-15T14:57:40;12.50;99.90
43338;DHT22;28933;52.492;13.434;2023-04-15T15:00:07;12.50;99.90
43338;DHT22;28933;52.492;13.434;2023-04-15T15:02:34;12.50;99.90
43338;DHT22;28933;52.492;13.434;2023-04-15T15:05:01;12.40;99.90
43338;DHT22;28933;52.492;13.434;2023-04-15T15:07:26;12.40;99.90
43338;DHT22;28933;52.492;13.434;2023-04-15T15:09:53;12.40;99.90
43338;DHT22;28933;52.492;13.434;2023-04-15T15:12:19;12.40;99.90
43338;DHT22;28933;52.492;13.434;2023-04-15T15:14:46;12.30;99.90
43338;DHT22;28933;52.492;13.434;2023-04-15T15:17:13;12.30;99.90
43338;DHT22;28933;52.492;13.434;2023-04-15T15:19:39;12.30;99.90
43338;DHT22;28933;52.492;13.434;2023-04-15T15:22:05;12.30;99.90
43338;DHT22;28933;52.492;13.434;2023-04-15T15:24:31;12.30;99.90
43338;DHT22;28933;52.492;13.434;2023-04-15T15:26:56;12.30;99.90
43338;DHT22;28933;52.492;13.434;2023-04-15T15:29:22;12.30;99.90
43338;DHT22;28933;52.492;13.434;2023-04-15T15:31:48;12.30;99.90